Carson Sink, Nevada Weather observations

Data are for observation ending at time listed.
 Day   Time    Ave.   Ave.  Ave.  Vector   Max.   Stn.    Total    Solar   Ave.  
  of    of     Air    Rel.  Wind   Wind    Wind   Baro.  Precip.   Rad.    Soil  
Year   Day     Temp.  Hum.  Speed  Dir.    Gust   Pres.                    Temp. 
2014   (PST)    F      %     mph   deg.    mph     mb.     in.     W/m2     F   
------------------------------------------------------------------------------
 234    0:00   70.3    30    0.0     0      0.0   881.1    0.00       0     84.2
 234    0:10   69.0    32    0.0     0      0.0   881.0    0.00       0     84.0
 234    0:20   68.7    32    0.0     0      0.0   881.0    0.00       0     83.8
 234    0:30   67.9    32    0.0     0      0.0   881.0    0.00       0     83.7
 234    0:40   67.2    33    0.0     0      0.0   880.9    0.00       0     83.5
 234    0:50   66.4    34    0.0     0      0.0   880.8    0.00       0     83.4
 234    1:00   65.5    34    0.0     0      0.0   880.9    0.00       0     83.2
 234    1:10   65.1    35    0.0     0      0.0   881.0    0.00       0     83.0
 234    1:20   65.1    35    0.0     0      0.0   881.0    0.00       0     82.9
 234    1:30   64.2    36    0.0     0      0.0   881.1    0.00       0     82.7
 234    1:40   63.8    37    0.0     0      0.0   881.1    0.00       0     82.5
 234    1:50   63.4    37    0.0     0      0.0   881.1    0.00       0     82.4
 234    2:00   63.2    38    0.0     0      0.0   881.2    0.00       0     82.2
 234    2:10   63.7    37    0.0     0      0.0   881.3    0.00       0     82.1
 234    2:20   63.8    37    0.0     0      0.0   881.3    0.00       0     81.9
 234    2:30   62.6    38    0.0     0      0.0   881.3    0.00       0     81.7
 234    2:40   62.6    38    0.0     0      0.0   881.3    0.00       0     81.5
 234    2:50   62.6    38    0.0     0      0.0   881.2    0.00       0     81.4
 234    3:00   61.6    38    0.0     0      0.0   881.2    0.00       0     81.2
 234    3:10   61.6    38    0.0     0      0.0   881.2    0.00       0     81.0
 234    3:20   61.2    38    0.0     0      0.0   881.1    0.00       0     80.9
 234    3:30   60.6    38    0.0     0      0.0   881.1    0.00       0     80.7
 234    3:40   60.3    38    0.0     0      0.0   881.2    0.00       0     80.5
 234    3:50   59.5    39    0.0     0      0.0   881.2    0.00       0     80.3
 234    4:00   59.5    39    0.0     0      0.0   881.2    0.00       0     80.2
 234    4:10   59.3    39    0.0     0      0.0   881.2    0.00       0     80.0
 234    4:20   58.8    40    0.0     0      0.0   881.2    0.00       0     79.9
 234    4:30   58.2    40    0.0     0      0.0   881.2    0.00       0     79.7
 234    4:40   58.1    40    0.0     0      0.0   881.1    0.00       0     79.5
 234    4:50   58.6    40    0.0     0      0.0   881.3    0.00       0     79.4
 234    5:00   59.5    39    0.0     0      0.0   881.4    0.00       0     79.2
 234    5:10   59.4    39    0.0     0      0.0   881.3    0.00       1     79.1
 234    5:20   58.7    39    0.0     0      0.0   881.2    0.00       4     78.9
 234    5:30   58.7    38    0.0     0      0.0   881.2    0.00      10     78.7
 234    5:40   59.8    36    0.0     0      0.0   881.2    0.00      45     78.6
 234    5:50   60.0    36    0.0     0      0.0   881.3    0.00      77     78.4
 234    6:00   59.6    35    0.0     0      0.0   881.4    0.00      89     78.3
 234    6:10   60.2    35    0.0     0      0.0   881.5    0.00      89     78.2
 234    6:20   61.8    33    0.0     0      0.0   881.4    0.00     183     78.0
 234    6:30   63.4    32    0.0     0      0.0   881.3    0.00     229     77.9
 234    6:40   64.7    32    0.0     0      0.0   881.4    0.00     270     77.8
 234    6:50   66.8    31    0.0     0      0.0   881.4    0.00     338     77.7
 234    7:00   68.4    30    0.0     0      0.0   881.3    0.00     426     77.6
 234    7:10   69.9    29    0.0     0      0.0   881.3    0.00     409     77.5
 234    7:20   71.1    28    0.0     0      0.0   881.3    0.00     278     77.5
 234    7:30   71.1    28    0.0     0      0.0   881.3    0.00     201     77.5
 234    7:40   71.4    28    0.0     0      0.0   881.2    0.00     221     77.6
 234    7:50   71.7    28    0.0     0      0.0   881.2    0.00     335     77.7
 234    8:00   71.7    28    0.0     0      0.0   881.2    0.00     353     77.7
 234    8:10   72.3    26    0.0     0      0.0   881.3    0.00     530     77.8
 234    8:20   72.6    26    0.0     0      0.0   881.2    0.00     593     77.9
 234    8:30   74.0    26    0.0     0      0.0   881.2    0.00     567     78.0
 234    8:40   74.6    25    0.0     0      0.0   881.3    0.00     469     78.2
 234    8:50   75.1    25    0.0     0      0.0   881.2    0.00     617     78.3
 234    9:00   76.1    24    0.0     0      0.0   881.1    0.00     659     78.5
 234    9:10   76.2    24    0.0     0      0.0   881.1    0.00     680     78.8
 234    9:20   76.3    23    0.0     0      0.0   881.0    0.00     702     79.1
 234    9:30   77.0    23    0.0     0      0.0   880.9    0.00     722     79.3
 234    9:40   77.8    21    0.0     0      0.0   880.8    0.00     744     79.6
 234    9:50   77.3    21    0.0     0      0.0   880.8    0.00     764     80.0
 234   10:00   78.3    20    0.0     0      0.0   880.6    0.00     782     80.3
 234   10:10   78.3    20    0.0     0      0.0   880.6    0.00     800     80.6
 234   10:20   78.6    19    0.0     0      0.0   880.5    0.00     816     81.0
 234   10:30   80.0    18    0.0     0      0.0   880.4    0.00     828     81.4
 234   10:40   80.0    18    0.0     0      0.0   880.3    0.00     841     81.8
 234   10:50   81.2    17    0.0     0      0.0   880.0    0.00     857     82.2
 234   11:00   80.8    17    0.0     0      0.0   880.0    0.00     874     82.6
 234   11:10   80.7    17    0.0     0      0.0   879.9    0.00     899     83.0
 234   11:20   81.4    17    0.0     0      0.0   879.7    0.00     900     83.4
 234   11:30   81.6    17    0.0     0      0.0   879.6    0.00     967     83.8
 234   11:40   81.6    17    0.0     0      0.0   879.5    0.00     790     84.1
 234   11:50   82.7    16    0.0     0      0.0   879.4    0.00     920     84.5
 234   12:00   82.7    16    0.0     0      0.0   879.1    0.00     864     85.0
 234   12:10   83.1    16    0.0     0      0.0   878.9    0.00     587     85.4
 234   12:20   82.3    16    0.0     0      0.0   878.8    0.00     554     85.8
 234   12:30   82.8    16    0.0     0      0.0   878.6    0.00     776     86.2
 234   12:40   82.6    16    0.0     0      0.0   878.5    0.00     358     86.6
 234   12:50   83.1    16    0.0     0      0.0   878.3    0.00     299     86.9
 234   13:00   82.8    16    0.0     0      0.0   878.2    0.00     619     87.2
 234   13:10   82.6    16    0.0     0      0.0   877.9    0.00     287     87.4
 234   13:20   83.4    16    0.0     0      0.0   877.7    0.00     830     87.6
 234   13:30   83.9    15    0.0     0      0.0   877.6    0.00     747     87.8
 234   13:40   85.4    14    0.0     0      0.0   877.4    0.00     854     88.1
 234   13:50   86.8    12    0.0     0      0.0   877.2    0.00     839     88.2
 234   14:00   86.0    12    0.0     0      0.0   877.1    0.00     461     88.4
 234   14:10   85.9    12    0.0     0      0.0   877.1    0.00     870     88.6
 234   14:20   86.9    12    0.0     0      0.0   877.0    0.00     716     88.8
 234   14:30   86.4    12    0.0     0      0.0   877.1    0.00     663     88.8
 234   14:40   85.9    12    0.0     0      0.0   877.1    0.00     313     88.9
 234   14:50   86.3    12    0.0     0      0.0   877.1    0.00     678     89.0
 234   15:00   86.8    12    0.0     0      0.0   877.0    0.00     646     89.0
 234   15:10   87.1    11    0.0     0      0.0   876.8    0.00     637     88.9
 234   15:20   86.9    11    0.0     0      0.0   876.9    0.00     588     88.9
 234   15:30   87.2    11    0.0     0      0.0   877.0    0.00     557     88.9
 234   15:40   86.9    11    0.0     0      0.0   877.0    0.00     531     88.8
 234   15:50   87.1    11    0.0     0      0.0   876.9    0.00     499     88.9
 234   16:00   86.4    11    0.0     0      0.0   877.0    0.00     453     88.9
 234   16:10   85.6    11    0.0     0      0.0   877.0    0.00     424     89.0
 234   16:20   85.8    12    0.0     0      0.0   877.1    0.00     396     89.1
 234   16:30   85.5    12    0.0     0      0.0   877.1    0.00     327     89.1
 234   16:40   85.4    12    0.0     0      0.0   877.1    0.00     340     89.1
 234   16:50   85.3    13    0.0     0      0.0   877.2    0.00     325     89.1
 234   17:00   84.8    13    0.0     0      0.0   877.3    0.00     281     89.1
 234   17:10   85.1    12    0.0     0      0.0   877.2    0.00     245     89.1
 234   17:20   84.8    12    0.0     0      0.0   877.2    0.00     220     89.0
 234   17:30   84.7    12    0.0     0      0.0   877.3    0.00     187     89.0
 234   17:40   84.3    12    0.0     0      0.0   877.2    0.00     159     88.9
 234   17:50   83.8    12    0.0     0      0.0   877.2    0.00      74     88.8
 234   18:00   83.0    13    0.0     0      0.0   877.3    0.00      47     88.8
 234   18:10   82.7    13    0.0     0      0.0   877.4    0.00      48     88.7
 234   18:20   82.4    13    0.0     0      0.0   877.5    0.00      15     88.6
 234   18:30   82.1    14    0.0     0      0.0   877.6    0.00       8     88.5
 234   18:40   81.8    14    0.0     0      0.0   877.7    0.00       3     88.4
 234   18:50   81.5    13    0.0     0      0.0   877.9    0.00       1     88.2
 234   19:00   81.0    15    0.0     0      0.0   878.1    0.00       0     88.0
 234   19:10   79.0    21    0.0     0      0.0   878.5    0.00       0     87.9
 234   19:20   78.1    22    0.0     0      0.0   878.7    0.00       0     87.7
 234   19:30   77.6    23    0.0     0      0.0   879.0    0.00       0     87.5
 234   19:40   77.1    23    0.0     0      0.0   879.1    0.00       0     87.3
 234   19:50   76.6    25    0.0     0      0.0   879.4    0.00       0     87.2
 234   20:00   76.0    24    0.0     0      0.0   879.5    0.00       0     87.0
 234   20:10   75.8    25    0.0     0      0.0   879.5    0.00       0     86.8
 234   20:20   75.7    24    0.0     0      0.0   879.6    0.00       0     86.6
 234   20:30   76.0    21    0.0     0      0.0   879.7    0.00       0     86.5
 234   20:40   74.6    25    0.0     0      0.0   879.8    0.00       0     86.3
 234   20:50   73.1    28    0.0     0      0.0   880.0    0.00       0     86.1
 234   21:00   72.5    25    0.0     0      0.0   880.1    0.00       0     85.9
 234   21:10   72.1    20    0.0     0      0.0   880.2    0.00       0     85.7
 234   21:20   72.2    18    0.0     0      0.0   880.3    0.00       0     85.4
 234   21:30   71.5    16    0.0     0      0.0   880.3    0.00       0     85.2
 234   21:40   71.0    15    0.0     0      0.0   880.4    0.00       0     85.0
 234   21:50   70.6    16    0.0     0      0.0   880.6    0.00       0     84.8
 234   22:00   69.7    18    0.0     0      0.0   880.7    0.00       0     84.6
 234   22:10   69.3    18    0.0     0      0.0   880.8    0.00       0     84.4
 234   22:20   68.8    19    0.0     0      0.0   880.9    0.00       0     84.2

Return to Carson Sink graphs page.


Western Regional Climate Center,wrcc@dri.edu